Time;durP1;ratioP1;P1;durP2;ratioP2;P2;SDS_P1;SDS_P2;PMS_P1;PMS_P2;Temp;Humidity;BMP_temperature;BMP_pressure;BME280_temperature;BME280_humidity;BME280_pressure;Samples;Min_cycle;Max_cycle;Signal;HPM_P1;HPM_P2
2023/06/13 00:01:17;;;;;;;11.17;5.97;;;;;;;17.51;100.00;94665.16;4990156;28;20218;-78
2023/06/13 00:03:47;;;;;;;10.33;5.90;;;;;;;17.49;100.00;94669.91;4989474;28;20687;-78
2023/06/13 00:06:15;;;;;;;14.17;5.70;;;;;;;17.49;100.00;94667.28;5007981;28;20287;-78
2023/06/13 00:08:42;;;;;;;9.43;5.97;;;;;;;17.50;100.00;94664.38;4989147;28;20293;-78
2023/06/13 00:11:07;;;;;;;10.07;5.97;;;;;;;17.52;100.00;94666.00;5006622;28;20207;-78
2023/06/13 00:13:33;;;;;;;14.40;6.67;;;;;;;17.48;100.00;94663.03;4990515;28;20195;-79
2023/06/13 00:16:00;;;;;;;14.00;5.93;;;;;;;17.48;100.00;94660.41;5007036;28;20230;-78
2023/06/13 00:18:28;;;;;;;12.43;6.17;;;;;;;17.42;100.00;94651.59;4991251;28;20230;-78
2023/06/13 00:20:54;;;;;;;14.93;6.30;;;;;;;17.40;100.00;94653.69;5008767;28;20226;-78
2023/06/13 00:23:20;;;;;;;10.97;6.70;;;;;;;17.43;100.00;94655.81;4972695;28;20247;-79
2023/06/13 00:25:45;;;;;;;10.13;6.53;;;;;;;17.60;100.00;94642.53;5007808;28;20325;-79
2023/06/13 00:28:11;;;;;;;12.03;6.47;;;;;;;17.51;100.00;94651.94;5007461;28;20233;-79
2023/06/13 00:30:36;;;;;;;13.43;6.57;;;;;;;17.49;100.00;94644.25;5006752;28;20191;-78
2023/06/13 00:33:04;;;;;;;14.73;6.90;;;;;;;17.56;100.00;94653.88;4991154;28;20228;-78
2023/06/13 00:35:30;;;;;;;13.70;6.87;;;;;;;17.49;100.00;94656.69;5002417;28;20199;-78
2023/06/13 00:37:56;;;;;;;9.97;6.60;;;;;;;17.38;100.00;94647.84;5001241;28;20269;-78
2023/06/13 00:40:25;;;;;;;9.83;6.33;;;;;;;17.44;100.00;94659.28;4974924;28;20226;-79
2023/06/13 00:42:55;;;;;;;8.77;6.47;;;;;;;17.48;100.00;94655.88;5005963;28;20206;-79
2023/06/13 00:45:22;;;;;;;11.47;6.53;;;;;;;17.65;100.00;94655.81;4991186;28;20293;-76
2023/06/13 00:47:52;;;;;;;9.30;6.80;;;;;;;17.63;100.00;94647.34;5020816;28;20206;-78
2023/06/13 00:50:45;;;;;;;10.57;6.80;;;;;;;17.64;100.00;94648.94;5010139;28;20302;-77
2023/06/13 00:53:18;;;;;;;9.67;6.63;;;;;;;17.64;100.00;94643.66;4990485;28;20191;-78
2023/06/13 00:55:44;;;;;;;12.03;6.57;;;;;;;17.65;100.00;94655.03;5006810;28;20221;-78
2023/06/13 00:58:10;;;;;;;11.20;6.60;;;;;;;17.63;100.00;94646.53;5005774;28;20201;-77
2023/06/13 01:00:36;;;;;;;11.20;6.63;;;;;;;17.61;100.00;94643.34;4989684;28;20187;-78
2023/06/13 01:03:09;;;;;;;11.57;6.70;;;;;;;17.58;100.00;94633.28;4990363;28;20191;-78
2023/06/13 01:05:35;;;;;;;11.63;6.40;;;;;;;17.57;100.00;94643.06;5006522;28;20206;-77
2023/06/13 01:08:04;;;;;;;11.73;6.40;;;;;;;17.44;100.00;94638.91;4991781;28;20217;-77
2023/06/13 01:10:30;;;;;;;12.53;6.80;;;;;;;17.38;100.00;94639.13;4991909;28;20187;-78
2023/06/13 01:13:08;;;;;;;12.67;6.50;;;;;;;17.40;100.00;94642.31;5000429;28;20294;-78
2023/06/13 01:15:36;;;;;;;14.17;6.93;;;;;;;17.36;100.00;94643.84;5004758;28;20695;-77
2023/06/13 01:18:03;;;;;;;10.57;6.40;;;;;;;17.25;100.00;94642.13;5001926;28;20191;-76
2023/06/13 01:20:28;;;;;;;9.47;6.50;;;;;;;17.22;100.00;94646.06;5019039;28;20191;-78
2023/06/13 01:23:30;;;;;;;12.53;6.50;;;;;;;17.07;100.00;94637.97;4996633;28;20246;-77
2023/06/13 01:26:15;;;;;;;12.77;6.80;;;;;;;16.93;100.00;94636.72;5006133;28;20238;-78
2023/06/13 01:28:43;;;;;;;13.00;6.83;;;;;;;16.94;100.00;94640.97;5006038;28;20224;-77
2023/06/13 01:31:12;;;;;;;11.93;6.57;;;;;;;17.00;100.00;94640.00;5005034;28;20211;-78
2023/06/13 01:33:37;;;;;;;13.57;6.43;;;;;;;17.00;100.00;94636.53;4973469;28;20198;-79
2023/06/13 01:36:03;;;;;;;10.23;6.70;;;;;;;16.96;100.00;94646.78;4993135;28;20223;-78
2023/06/13 01:38:28;;;;;;;8.60;6.40;;;;;;;17.02;100.00;94647.66;4993534;28;20199;-78
2023/06/13 01:40:54;;;;;;;8.83;6.50;;;;;;;17.03;100.00;94644.00;5010063;28;20225;-77
2023/06/13 01:43:20;;;;;;;12.37;6.33;;;;;;;17.00;100.00;94645.28;5008107;28;20201;-70
2023/06/13 01:45:45;;;;;;;10.30;6.30;;;;;;;16.86;100.00;94633.44;4992121;28;20300;-69
2023/06/13 01:48:20;;;;;;;9.17;6.60;;;;;;;16.97;100.00;94637.84;5008656;28;20191;-70
2023/06/13 01:50:49;;;;;;;14.30;6.70;;;;;;;16.72;100.00;94645.41;5008308;28;20230;-69
2023/06/13 01:53:36;;;;;;;11.13;6.43;;;;;;;16.62;100.00;94643.44;4991276;28;20183;-70
2023/06/13 01:56:04;;;;;;;13.20;6.57;;;;;;;16.63;100.00;94650.31;4991122;28;20250;-70
2023/06/13 01:58:33;;;;;;;14.13;7.00;;;;;;;16.44;100.00;94643.69;4990360;28;20187;-70
2023/06/13 02:01:00;;;;;;;11.37;6.70;;;;;;;16.61;100.00;94638.41;4992134;28;20245;-70
2023/06/13 02:03:26;;;;;;;11.73;7.10;;;;;;;16.60;100.00;94634.16;4991305;28;20183;-70
2023/06/13 02:05:52;;;;;;;10.93;6.70;;;;;;;16.69;100.00;94644.06;5007598;28;20269;-70
2023/06/13 02:08:17;;;;;;;11.07;6.80;;;;;;;16.64;100.00;94643.22;5007874;28;20196;-70
2023/06/13 02:10:43;;;;;;;10.50;6.90;;;;;;;16.75;100.00;94647.59;4991409;28;20245;-70
2023/06/13 02:13:09;;;;;;;9.80;6.60;;;;;;;16.69;100.00;94636.13;4975060;28;20191;-70
2023/06/13 02:15:34;;;;;;;11.47;7.07;;;;;;;16.63;100.00;94642.41;4991186;28;20195;-70
2023/06/13 02:18:00;;;;;;;12.27;6.97;;;;;;;16.70;100.00;94634.28;5007522;28;20183;-70
2023/06/13 02:20:25;;;;;;;12.80;6.63;;;;;;;16.66;100.00;94636.63;5007887;28;20572;-70
2023/06/13 02:22:51;;;;;;;9.67;6.77;;;;;;;16.73;100.00;94625.88;5007449;28;20249;-70
2023/06/13 02:25:17;;;;;;;11.83;7.17;;;;;;;16.66;100.00;94633.19;4990322;28;20210;-70
2023/06/13 02:27:43;;;;;;;12.57;6.63;;;;;;;16.74;100.00;94622.22;5006554;28;20214;-69
2023/06/13 02:30:09;;;;;;;9.27;6.50;;;;;;;16.73;100.00;94633.81;4991173;28;20191;-69
2023/06/13 02:32:36;;;;;;;13.87;7.03;;;;;;;16.58;100.00;94638.88;5005738;28;20226;-69
2023/06/13 02:35:02;;;;;;;11.67;7.17;;;;;;;16.57;100.00;94639.94;5007553;28;20198;-70
2023/06/13 02:37:27;;;;;;;11.97;6.40;;;;;;;16.64;100.00;94644.00;4989520;28;20321;-69
2023/06/13 02:39:53;;;;;;;10.37;6.80;;;;;;;16.56;100.00;94647.06;5007560;28;20198;-70
2023/06/13 02:42:18;;;;;;;11.40;7.07;;;;;;;16.44;100.00;94651.59;4990587;28;20242;-69
2023/06/13 02:44:44;;;;;;;14.97;7.10;;;;;;;16.51;100.00;94649.63;4990732;28;20207;-69
2023/06/13 02:47:09;;;;;;;11.77;7.20;;;;;;;16.66;100.00;94651.69;5006104;28;20223;-70
2023/06/13 02:49:35;;;;;;;14.10;6.93;;;;;;;16.66;100.00;94654.34;4990672;28;20234;-70
2023/06/13 02:52:01;;;;;;;13.90;6.60;;;;;;;16.71;100.00;94654.41;4991023;28;20215;-70
2023/06/13 02:54:26;;;;;;;11.00;6.93;;;;;;;16.79;100.00;94652.13;5007260;28;20191;-70
2023/06/13 02:56:52;;;;;;;16.37;6.83;;;;;;;16.88;100.00;94655.16;4973968;28;20313;-70
2023/06/13 02:59:19;;;;;;;10.53;6.40;;;;;;;16.82;100.00;94654.28;5007347;28;20237;-70
2023/06/13 03:01:44;;;;;;;11.67;6.70;;;;;;;16.75;100.00;94655.50;4990532;28;20227;-70
2023/06/13 03:04:11;;;;;;;10.27;6.60;;;;;;;16.66;100.00;94652.50;4989819;28;20562;-70
2023/06/13 03:06:40;;;;;;;13.37;6.80;;;;;;;16.58;100.00;94654.72;4973767;28;20257;-70
2023/06/13 03:09:06;;;;;;;15.50;6.90;;;;;;;16.58;100.00;94662.66;4992709;28;20194;-71
2023/06/13 03:11:32;;;;;;;11.73;7.20;;;;;;;16.68;100.00;94657.53;4990038;28;20206;-70
2023/06/13 03:13:57;;;;;;;14.27;7.10;;;;;;;16.70;100.00;94666.00;5006856;28;20273;-71
2023/06/13 03:16:23;;;;;;;14.37;7.60;;;;;;;16.79;100.00;94667.19;4983482;28;20230;-70
2023/06/13 03:18:48;;;;;;;12.17;7.70;;;;;;;16.88;100.00;94668.38;5005865;28;20270;-70
2023/06/13 03:21:15;;;;;;;12.93;7.90;;;;;;;16.97;100.00;94674.84;4989226;28;20211;-70
2023/06/13 03:23:40;;;;;;;14.53;7.80;;;;;;;17.03;100.00;94671.22;4988823;28;20235;-70
2023/06/13 03:26:06;;;;;;;13.50;7.80;;;;;;;17.01;100.00;94668.00;5008234;28;20242;-70
2023/06/13 03:28:31;;;;;;;13.63;8.07;;;;;;;16.80;100.00;94671.44;4989375;28;20651;-70
2023/06/13 03:30:57;;;;;;;10.47;7.80;;;;;;;16.65;100.00;94671.22;4990514;28;20230;-70
2023/06/13 03:33:23;;;;;;;13.67;7.83;;;;;;;16.75;100.00;94668.72;4991552;28;20694;-70
2023/06/13 03:35:48;;;;;;;14.43;7.57;;;;;;;16.81;100.00;94667.75;4991550;28;20297;-71
2023/06/13 03:38:14;;;;;;;12.90;7.80;;;;;;;16.83;100.00;94671.78;4991818;28;20278;-70
2023/06/13 03:40:39;;;;;;;10.90;7.97;;;;;;;16.82;100.00;94664.06;4989304;28;20207;-69
2023/06/13 03:43:05;;;;;;;11.77;7.60;;;;;;;16.88;100.00;94665.75;4973551;28;20222;-70
2023/06/13 03:45:30;;;;;;;12.33;7.90;;;;;;;17.03;100.00;94665.16;4973296;28;20316;-70
2023/06/13 03:47:56;;;;;;;11.17;7.87;;;;;;;17.11;100.00;94662.88;5007549;28;20183;-70
2023/06/13 03:50:21;;;;;;;14.30;8.50;;;;;;;17.10;100.00;94668.41;5005696;28;20183;-73
2023/06/13 03:52:47;;;;;;;14.37;9.20;;;;;;;17.03;100.00;94671.22;5005390;28;20218;-73
2023/06/13 03:55:15;;;;;;;13.97;8.70;;;;;;;17.02;100.00;94669.63;4989664;28;20191;-73
2023/06/13 03:57:41;;;;;;;12.40;8.63;;;;;;;17.07;100.00;94679.47;5005519;28;20225;-72
2023/06/13 04:00:08;;;;;;;16.50;8.90;;;;;;;17.17;100.00;94676.97;4989263;28;20199;-72
2023/06/13 04:02:33;;;;;;;13.73;9.00;;;;;;;17.17;100.00;94674.31;4995232;28;20224;-72
2023/06/13 04:05:00;;;;;;;15.33;8.87;;;;;;;17.18;100.00;94675.91;4989399;28;21149;-73
2023/06/13 04:07:26;;;;;;;14.50;8.73;;;;;;;17.20;100.00;94679.91;5005130;28;20273;-72
2023/06/13 04:09:52;;;;;;;13.57;9.07;;;;;;;17.17;100.00;94680.38;4989240;28;20207;-73
2023/06/13 04:12:17;;;;;;;19.83;9.80;;;;;;;16.99;100.00;94687.81;5004901;28;20218;-73
2023/06/13 04:14:43;;;;;;;16.17;9.67;;;;;;;16.74;100.00;94686.41;4987967;28;20202;-73
2023/06/13 04:17:09;;;;;;;15.00;9.80;;;;;;;16.85;100.00;94692.66;4989336;28;20211;-73
2023/06/13 04:19:35;;;;;;;18.83;9.73;;;;;;;16.93;100.00;94689.59;4976349;28;20191;-73
2023/06/13 04:22:01;;;;;;;17.40;9.80;;;;;;;16.93;100.00;94691.44;4988574;28;20258;-74
2023/06/13 04:24:26;;;;;;;17.97;10.07;;;;;;;16.94;100.00;94691.19;4987879;28;20234;-73
2023/06/13 04:26:52;;;;;;;14.60;9.67;;;;;;;17.10;100.00;94686.91;5005605;28;20235;-73
2023/06/13 04:29:19;;;;;;;14.60;10.40;;;;;;;17.18;100.00;94683.84;4989058;28;20210;-73
2023/06/13 04:31:46;;;;;;;20.70;11.50;;;;;;;17.22;100.00;94693.66;4988728;28;20211;-74
2023/06/13 04:34:13;;;;;;;20.33;11.80;;;;;;;17.28;100.00;94698.00;4988811;28;20199;-74
2023/06/13 04:36:41;;;;;;;20.67;11.70;;;;;;;17.34;100.00;94701.47;4989524;28;20241;-72
2023/06/13 04:39:07;;;;;;;30.50;17.27;;;;;;;17.40;100.00;94700.50;4973241;28;20202;-73
2023/06/13 04:41:34;;;;;;;20.63;12.77;;;;;;;17.46;100.00;94702.16;4972831;28;20285;-73
2023/06/13 04:44:03;;;;;;;23.90;13.63;;;;;;;17.43;100.00;94706.09;4989029;28;20699;-73
2023/06/13 04:46:30;;;;;;;23.77;13.40;;;;;;;17.52;100.00;94711.81;4989137;28;20214;-73
2023/06/13 04:48:57;;;;;;;21.00;13.37;;;;;;;17.49;100.00;94709.63;4972949;28;20700;-73
2023/06/13 04:51:23;;;;;;;20.93;13.13;;;;;;;17.58;100.00;94707.38;4971552;28;20215;-73
2023/06/13 04:53:49;;;;;;;25.37;14.20;;;;;;;17.62;100.00;94709.28;4972792;28;21074;-72
2023/06/13 04:56:18;;;;;;;25.30;14.23;;;;;;;17.66;100.00;94714.84;5005132;28;20214;-73
2023/06/13 04:58:43;;;;;;;22.50;13.53;;;;;;;17.72;100.00;94714.66;4988519;28;20198;-74
2023/06/13 05:01:10;;;;;;;22.70;13.80;;;;;;;17.77;100.00;94714.72;4995404;28;20265;-73
2023/06/13 05:03:37;;;;;;;23.97;14.50;;;;;;;17.74;100.00;94711.78;5004840;28;20869;-73
2023/06/13 05:06:03;;;;;;;24.13;14.13;;;;;;;17.73;100.00;94715.47;4988919;28;20237;-73
2023/06/13 05:08:30;;;;;;;24.23;14.50;;;;;;;17.77;100.00;94727.19;4988716;28;20975;-72
2023/06/13 05:10:57;;;;;;;20.90;13.03;;;;;;;17.58;100.00;94717.97;4992940;28;20257;-73
2023/06/13 05:13:22;;;;;;;23.50;13.70;;;;;;;17.68;100.00;94718.84;4992852;28;20195;-74
2023/06/13 05:15:48;;;;;;;26.47;13.70;;;;;;;17.78;100.00;94726.13;5008820;28;20286;-74
2023/06/13 05:18:13;;;;;;;20.43;13.00;;;;;;;17.89;100.00;94720.69;5008803;28;20211;-73
2023/06/13 05:20:41;;;;;;;20.80;12.23;;;;;;;17.95;100.00;94719.69;4990738;28;20205;-73
2023/06/13 05:23:07;;;;;;;19.00;12.20;;;;;;;18.05;100.00;94719.81;4991895;28;20758;-74
2023/06/13 05:25:32;;;;;;;19.50;12.57;;;;;;;18.08;100.00;94718.47;4975781;28;20214;-73
2023/06/13 05:27:58;;;;;;;20.13;12.40;;;;;;;17.98;100.00;94713.09;4993182;28;20210;-78
2023/06/13 05:30:23;;;;;;;19.40;12.93;;;;;;;17.78;100.00;94720.81;4993466;28;20670;-78
2023/06/13 05:32:49;;;;;;;20.97;12.70;;;;;;;17.99;100.00;94719.97;5011137;28;20342;-78
2023/06/13 05:35:15;;;;;;;18.93;12.80;;;;;;;18.09;100.00;94725.38;4988598;28;20199;-78
2023/06/13 05:37:41;;;;;;;19.30;12.40;;;;;;;18.18;100.00;94723.88;5021826;28;20214;-77
2023/06/13 05:40:07;;;;;;;18.87;11.90;;;;;;;18.18;100.00;94716.72;4982026;28;20195;-78
2023/06/13 05:42:35;;;;;;;19.93;12.23;;;;;;;18.04;100.00;94718.19;4992079;28;20221;-78
2023/06/13 05:45:10;;;;;;;19.43;11.80;;;;;;;18.14;100.00;94715.66;4987804;28;20222;-79
2023/06/13 05:47:36;;;;;;;19.43;11.17;;;;;;;18.23;100.00;94715.97;5006226;28;20206;-78
2023/06/13 05:50:01;;;;;;;16.57;10.07;;;;;;;18.32;100.00;94718.97;5009026;28;20191;-77
2023/06/13 05:52:27;;;;;;;19.07;12.37;;;;;;;18.38;100.00;94718.75;5010521;28;20207;-78
2023/06/13 05:54:53;;;;;;;18.80;11.83;;;;;;;18.28;100.00;94725.81;5011307;28;20187;-78
2023/06/13 05:57:18;;;;;;;16.47;11.30;;;;;;;18.50;100.00;94726.56;5010120;28;20278;-77
2023/06/13 05:59:44;;;;;;;15.20;10.80;;;;;;;18.64;100.00;94733.84;4992986;28;20201;-78
2023/06/13 06:02:09;;;;;;;16.07;10.37;;;;;;;18.64;100.00;94727.75;4994455;28;20219;-78
2023/06/13 06:04:35;;;;;;;14.37;9.17;;;;;;;18.72;100.00;94728.06;5009318;28;20364;-77
2023/06/13 06:07:01;;;;;;;16.20;9.97;;;;;;;18.79;100.00;94720.69;4993898;28;20218;-78
2023/06/13 06:09:26;;;;;;;17.23;9.80;;;;;;;18.88;100.00;94725.53;4993720;28;20250;-78
2023/06/13 06:11:52;;;;;;;13.93;9.83;;;;;;;18.76;100.00;94721.22;5009568;28;20203;-78
2023/06/13 06:14:18;;;;;;;12.30;9.07;;;;;;;18.76;100.00;94718.56;5009663;28;20210;-78
2023/06/13 06:16:43;;;;;;;14.57;8.70;;;;;;;18.87;100.00;94718.63;4986349;28;20222;-78
2023/06/13 06:19:09;;;;;;;12.40;8.73;;;;;;;18.87;100.00;94722.06;4973610;28;20230;-77
2023/06/13 06:21:34;;;;;;;14.33;8.63;;;;;;;18.99;100.00;94719.22;4988867;28;20210;-78
2023/06/13 06:24:00;;;;;;;15.70;9.90;;;;;;;19.18;100.00;94717.72;4990626;28;20194;-77
2023/06/13 06:26:26;;;;;;;17.13;9.00;;;;;;;19.22;100.00;94722.31;5023993;28;20223;-79
2023/06/13 06:28:52;;;;;;;18.37;8.97;;;;;;;19.26;100.00;94719.91;5007589;28;20974;-78
2023/06/13 06:31:17;;;;;;;11.37;7.57;;;;;;;19.30;100.00;94720.97;4991259;28;20226;-78
2023/06/13 06:33:43;;;;;;;13.90;8.10;;;;;;;19.30;100.00;94715.69;4975325;28;20195;-78
2023/06/13 06:36:08;;;;;;;11.30;7.50;;;;;;;19.38;100.00;94715.22;4991344;28;20352;-79
2023/06/13 06:38:33;;;;;;;10.73;6.87;;;;;;;19.38;100.00;94718.69;5006350;28;20216;-78
2023/06/13 06:40:59;;;;;;;10.97;7.17;;;;;;;19.35;100.00;94708.53;5008734;28;20218;-78
2023/06/13 06:43:24;;;;;;;12.73;7.33;;;;;;;19.41;100.00;94704.09;5008486;28;20203;-79
2023/06/13 06:45:50;;;;;;;11.50;7.83;;;;;;;19.48;100.00;94704.66;4992944;28;20288;-79
2023/06/13 06:48:16;;;;;;;11.37;7.90;;;;;;;19.47;100.00;94706.50;5009365;28;20680;-78
2023/06/13 06:50:42;;;;;;;19.63;6.97;;;;;;;19.52;100.00;94703.06;4992633;28;20191;-78
2023/06/13 06:53:10;;;;;;;9.90;6.90;;;;;;;19.56;100.00;94706.03;4987938;28;21135;-77
2023/06/13 06:55:35;;;;;;;8.90;6.83;;;;;;;19.55;100.00;94710.53;5005019;28;20213;-76
2023/06/13 06:58:01;;;;;;;10.90;6.33;;;;;;;19.52;100.00;94705.72;4974810;28;20724;-76
2023/06/13 07:00:26;;;;;;;15.50;7.80;;;;;;;19.46;100.00;94714.75;4991632;28;20194;-77
2023/06/13 07:02:54;;;;;;;11.23;7.07;;;;;;;19.50;100.00;94710.50;5006703;28;20496;-76
2023/06/13 07:05:20;;;;;;;14.73;7.80;;;;;;;19.52;100.00;94710.22;4976560;28;20183;-76
2023/06/13 07:07:45;;;;;;;11.63;7.23;;;;;;;19.57;100.00;94718.22;5009559;28;20199;-81
2023/06/13 07:10:11;;;;;;;11.40;6.97;;;;;;;19.65;100.00;94713.22;4991474;28;20298;-78
2023/06/13 07:12:40;;;;;;;10.20;7.40;;;;;;;19.66;100.00;94709.50;5006239;28;20215;-78
2023/06/13 07:15:06;;;;;;;9.03;5.87;;;;;;;19.60;100.00;94699.94;4974869;28;20563;-78
2023/06/13 07:17:32;;;;;;;10.13;5.50;;;;;;;19.74;100.00;94710.84;5008297;28;20261;-78
2023/06/13 07:19:57;;;;;;;9.03;5.50;;;;;;;19.82;100.00;94705.81;4991066;28;20731;-79
2023/06/13 07:22:25;;;;;;;9.83;6.37;;;;;;;19.89;100.00;94702.94;4992174;28;20246;-79
2023/06/13 07:24:51;;;;;;;16.23;8.87;;;;;;;19.82;100.00;94702.38;5008359;28;20245;-78
2023/06/13 07:27:17;;;;;;;12.53;8.20;;;;;;;19.90;100.00;94707.97;4992756;28;20218;-78
2023/06/13 07:29:43;;;;;;;10.17;6.10;;;;;;;19.87;100.00;94710.38;4992290;28;20795;-78
2023/06/13 07:32:09;;;;;;;7.10;5.40;;;;;;;19.78;100.00;94702.09;4991678;28;20210;-76
2023/06/13 07:34:34;;;;;;;8.80;5.90;;;;;;;19.84;100.00;94698.41;5008400;28;20194;-79
2023/06/13 07:37:00;;;;;;;8.10;5.50;;;;;;;19.93;100.00;94701.34;4992735;28;20218;-79
2023/06/13 07:39:26;;;;;;;10.10;6.13;;;;;;;19.96;100.00;94704.28;4992558;28;20587;-79
2023/06/13 07:41:51;;;;;;;8.40;5.50;;;;;;;19.98;100.00;94696.84;5007251;28;20203;-78
2023/06/13 07:44:17;;;;;;;7.20;6.03;;;;;;;20.01;100.00;94690.97;5003209;28;20202;-79
2023/06/13 07:46:42;;;;;;;10.20;5.43;;;;;;;19.98;100.00;94686.22;4989996;28;20250;-78
2023/06/13 07:49:08;;;;;;;7.83;5.37;;;;;;;20.06;100.00;94693.66;5002882;28;20680;-79
2023/06/13 07:51:33;;;;;;;7.87;5.60;;;;;;;20.14;100.00;94698.47;4997456;28;20222;-80
2023/06/13 07:53:59;;;;;;;7.57;5.27;;;;;;;20.15;100.00;94697.41;5018385;28;20233;-80
2023/06/13 07:56:25;;;;;;;9.20;5.33;;;;;;;20.18;100.00;94702.19;5017030;28;20230;-79
2023/06/13 07:58:50;;;;;;;7.40;5.27;;;;;;;20.02;100.00;94691.78;5003328;28;20198;-78
2023/06/13 08:01:16;;;;;;;7.03;5.43;;;;;;;20.04;100.00;94692.31;5017205;28;20207;-80
2023/06/13 08:03:43;;;;;;;7.73;5.33;;;;;;;20.07;100.00;94700.56;5022451;28;20194;-80
2023/06/13 08:06:09;;;;;;;6.67;5.13;;;;;;;19.94;100.00;94700.28;5016245;28;20715;-79
2023/06/13 08:08:34;;;;;;;6.97;5.50;;;;;;;19.83;100.00;94696.00;4994978;28;20214;-80
2023/06/13 08:11:00;;;;;;;8.73;5.53;;;;;;;19.85;100.00;94699.19;5009008;28;20274;-79
2023/06/13 08:13:25;;;;;;;10.30;6.70;;;;;;;19.89;100.00;94692.31;5014501;28;20256;-79
2023/06/13 08:15:51;;;;;;;13.33;6.47;;;;;;;19.83;100.00;94693.34;5001846;28;20237;-80
2023/06/13 08:18:16;;;;;;;8.57;6.00;;;;;;;19.76;100.00;94695.44;5009069;28;20199;-81
2023/06/13 08:20:42;;;;;;;10.33;6.50;;;;;;;19.74;100.00;94698.38;4990597;28;20191;-79
2023/06/13 08:23:08;;;;;;;9.63;6.30;;;;;;;19.76;100.00;94693.59;5008122;28;20420;-79
2023/06/13 08:25:33;;;;;;;12.00;6.37;;;;;;;19.80;100.00;94694.66;5006309;28;20239;-79
2023/06/13 08:27:59;;;;;;;9.10;6.20;;;;;;;19.77;100.00;94694.41;4990383;28;20282;-77
2023/06/13 08:30:24;;;;;;;9.07;6.30;;;;;;;19.81;100.00;94695.47;4974508;28;20203;-79
2023/06/13 08:32:54;;;;;;;9.07;6.47;;;;;;;19.78;100.00;94695.97;5008279;28;20213;-79
2023/06/13 08:35:20;;;;;;;11.87;6.80;;;;;;;19.49;100.00;94701.72;4991035;28;20191;-79
2023/06/13 08:37:45;;;;;;;15.27;9.90;;;;;;;19.42;100.00;94690.56;5023183;28;20222;-81
2023/06/13 08:40:12;;;;;;;14.27;7.20;;;;;;;19.53;100.00;94698.56;4991256;28;20784;-77
2023/06/13 08:42:40;;;;;;;10.00;6.50;;;;;;;19.43;100.00;94702.78;4991277;28;20219;-77
2023/06/13 08:45:07;;;;;;;18.40;7.70;;;;;;;19.27;100.00;94701.06;5005446;28;20662;-76
2023/06/13 08:47:33;;;;;;;20.00;8.53;;;;;;;19.17;100.00;94708.19;4990503;28;20611;-77
2023/06/13 08:50:00;;;;;;;15.50;8.07;;;;;;;18.98;100.00;94710.47;4990685;28;20207;-77
2023/06/13 08:52:25;;;;;;;16.67;8.90;;;;;;;18.59;100.00;94707.28;5005323;28;20226;-76
2023/06/13 08:54:53;;;;;;;15.33;8.57;;;;;;;18.49;100.00;94707.22;4988617;28;21167;-75
2023/06/13 08:57:18;;;;;;;14.83;8.47;;;;;;;18.41;100.00;94702.38;4988509;28;20225;-76
2023/06/13 08:59:45;;;;;;;18.43;9.03;;;;;;;18.31;100.00;94712.06;4971592;28;20202;-75
2023/06/13 09:02:14;;;;;;;21.63;9.63;;;;;;;18.50;100.00;94715.97;4990424;28;20304;-76
2023/06/13 09:04:39;;;;;;;18.70;9.87;;;;;;;18.49;100.00;94712.50;5005414;28;20245;-76
2023/06/13 09:07:05;;;;;;;18.17;9.93;;;;;;;18.67;100.00;94711.34;4989571;28;20650;-77
2023/06/13 09:09:31;;;;;;;16.27;9.97;;;;;;;18.70;100.00;94708.19;4988755;28;20229;-76
2023/06/13 09:11:57;;;;;;;15.33;9.50;;;;;;;18.73;100.00;94707.66;4989538;28;20211;-76
2023/06/13 09:14:22;;;;;;;17.93;9.90;;;;;;;18.76;100.00;94709.81;5005663;28;20195;-77
2023/06/13 09:16:52;;;;;;;17.83;10.47;;;;;;;18.73;100.00;94703.16;4989620;28;20285;-79
2023/06/13 09:19:18;;;;;;;14.43;9.90;;;;;;;18.76;100.00;94702.66;4989282;28;20253;-78
2023/06/13 09:21:43;;;;;;;17.60;9.73;;;;;;;18.67;100.00;94698.09;4987161;28;20901;-78
2023/06/13 09:24:09;;;;;;;15.47;9.97;;;;;;;18.82;100.00;94701.63;4989279;28;20195;-78
2023/06/13 09:26:35;;;;;;;14.50;9.87;;;;;;;18.86;100.00;94698.47;4988270;28;20226;-78
2023/06/13 09:29:00;;;;;;;17.07;10.37;;;;;;;18.93;100.00;94705.16;4981797;28;20195;-77
2023/06/13 09:31:29;;;;;;;13.87;9.43;;;;;;;18.99;100.00;94708.59;4986108;28;20223;-77
2023/06/13 09:33:55;;;;;;;16.87;9.50;;;;;;;19.00;100.00;94710.22;4971925;28;20230;-77
2023/06/13 09:36:21;;;;;;;15.87;9.40;;;;;;;18.94;100.00;94704.06;5003277;28;20246;-77
2023/06/13 09:38:48;;;;;;;15.67;9.73;;;;;;;18.96;100.00;94707.28;4987630;28;20199;-76
2023/06/13 09:41:13;;;;;;;17.73;9.83;;;;;;;18.94;100.00;94706.72;4987778;28;20304;-77
2023/06/13 09:43:39;;;;;;;15.33;10.00;;;;;;;18.99;100.00;94698.00;4962339;28;20750;-77
2023/06/13 09:46:05;;;;;;;15.87;10.10;;;;;;;18.97;100.00;94700.13;5004124;28;20350;-77
2023/06/13 09:48:31;;;;;;;15.97;10.03;;;;;;;19.05;100.00;94703.09;4972354;28;20203;-76
2023/06/13 09:50:56;;;;;;;15.00;9.57;;;;;;;19.05;100.00;94707.59;4988508;28;20257;-76
2023/06/13 09:53:22;;;;;;;19.40;11.00;;;;;;;19.04;100.00;94706.00;4988743;28;20760;-76
2023/06/13 09:55:50;;;;;;;15.93;11.03;;;;;;;18.98;100.00;94705.19;4990676;28;20649;-75
2023/06/13 09:58:16;;;;;;;20.43;12.60;;;;;;;19.03;100.00;94705.22;4992807;28;20183;-76
2023/06/13 10:00:41;;;;;;;21.60;13.80;;;;;;;19.14;100.00;94692.78;5008938;28;20182;-75
2023/06/13 10:03:08;;;;;;;21.53;11.57;;;;;;;19.00;100.00;94694.31;5009650;28;20197;-75
2023/06/13 10:05:33;;;;;;;17.27;11.77;;;;;;;19.14;100.00;94692.78;4991329;28;20265;-75
2023/06/13 10:07:59;;;;;;;18.67;11.87;;;;;;;19.15;100.00;94692.53;5008612;28;20238;-75
2023/06/13 10:10:25;;;;;;;19.53;12.30;;;;;;;19.19;100.00;94685.66;5010475;28;20245;-76
2023/06/13 10:12:53;;;;;;;16.50;11.23;;;;;;;19.13;100.00;94689.31;5008790;28;20663;-76
2023/06/13 10:15:34;;;;;;;18.53;12.10;;;;;;;19.18;100.00;94683.25;4977016;28;20218;-76
2023/06/13 10:18:02;;;;;;;19.87;12.17;;;;;;;19.32;100.00;94687.06;4978048;28;20203;-76
2023/06/13 10:20:28;;;;;;;16.10;10.87;;;;;;;19.16;100.00;94695.97;5008880;28;20191;-77
2023/06/13 10:22:57;;;;;;;18.43;11.23;;;;;;;19.08;100.00;94696.47;4976679;28;20245;-76
2023/06/13 10:25:26;;;;;;;17.97;10.83;;;;;;;19.13;100.00;94689.31;4993684;28;20194;-77
2023/06/13 10:27:52;;;;;;;16.53;11.30;;;;;;;18.97;100.00;94692.97;4993709;28;20214;-77
2023/06/13 10:30:43;;;;;;;18.17;12.00;;;;;;;19.13;100.00;94693.84;4998371;28;20305;-77
2023/06/13 10:33:16;;;;;;;15.07;10.00;;;;;;;19.06;100.00;94682.69;5011840;28;20203;-77
2023/06/13 10:35:54;;;;;;;17.97;11.73;;;;;;;19.03;100.00;94678.69;5010185;28;20214;-77
2023/06/13 10:38:59;;;;;;;18.33;11.77;;;;;;;19.03;100.00;94678.69;5007377;28;20290;-76
2023/06/13 10:41:35;;;;;;;13.77;9.67;;;;;;;19.18;100.00;94670.78;4992398;28;20230;-77
2023/06/13 10:44:20;;;;;;;14.10;9.83;;;;;;;19.17;100.00;94684.31;5012768;28;20197;-77
2023/06/13 10:46:45;;;;;;;16.30;10.10;;;;;;;19.28;100.00;94685.94;5009116;28;20309;-76
2023/06/13 10:49:15;;;;;;;15.30;10.50;;;;;;;19.24;100.00;94680.38;4992709;28;20241;-76
2023/06/13 10:51:42;;;;;;;13.80;10.57;;;;;;;19.09;100.00;94680.28;4976479;28;20219;-76
2023/06/13 10:54:11;;;;;;;15.50;11.17;;;;;;;19.01;100.00;94680.78;4975870;28;20187;-76
2023/06/13 10:56:42;;;;;;;17.03;10.17;;;;;;;19.12;100.00;94673.66;4975576;28;20842;-76
2023/06/13 10:59:13;;;;;;;14.73;10.40;;;;;;;19.06;100.00;94669.41;4993111;28;20230;-76
2023/06/13 11:01:39;;;;;;;17.47;10.97;;;;;;;19.16;100.00;94664.94;4991526;28;20751;-77
2023/06/13 11:04:16;;;;;;;17.70;10.37;;;;;;;19.18;100.00;94662.00;4992077;28;20723;-76
2023/06/13 11:06:47;;;;;;;16.60;10.80;;;;;;;19.46;100.00;94667.72;4990859;28;20301;-76
2023/06/13 11:09:18;;;;;;;14.83;10.10;;;;;;;19.64;100.00;94674.44;4992192;28;20280;-75
2023/06/13 11:11:45;;;;;;;13.07;8.10;;;;;;;19.71;100.00;94674.19;5009144;28;20210;-75
2023/06/13 11:14:11;;;;;;;14.27;9.43;;;;;;;19.72;100.00;94675.78;5008200;28;20198;-76
2023/06/13 11:16:38;;;;;;;14.30;10.50;;;;;;;19.64;100.00;94673.63;4974293;28;20227;-71